sensor_id;sensor_type;location;lat;lon;timestamp;pressure;altitude;pressure_sealevel;temperature;humidity
41684;BME280;27369;52.030;4.586;2023-04-30T00:02:10;-20807.34;;;-144.41;100.00
41684;BME280;27369;52.030;4.586;2023-04-30T00:04:36;-20807.34;;;-144.41;100.00
41684;BME280;27369;52.030;4.586;2023-04-30T00:07:01;-20807.34;;;-144.41;100.00
41684;BME280;27369;52.030;4.586;2023-04-30T00:09:27;-20807.34;;;-144.41;100.00
41684;BME280;27369;52.030;4.586;2023-04-30T00:11:52;-20807.34;;;-144.41;100.00
41684;BME280;27369;52.030;4.586;2023-04-30T00:14:18;-20807.34;;;-144.41;100.00
41684;BME280;27369;52.030;4.586;2023-04-30T00:16:43;-20807.34;;;-144.41;100.00
41684;BME280;27369;52.030;4.586;2023-04-30T00:19:09;-20807.34;;;-144.41;100.00
41684;BME280;27369;52.030;4.586;2023-04-30T00:21:34;-20807.34;;;-144.41;100.00
41684;BME280;27369;52.030;4.586;2023-04-30T00:24:00;-20807.34;;;-144.41;100.00
41684;BME280;27369;52.030;4.586;2023-04-30T00:26:26;-20807.34;;;-144.41;100.00
41684;BME280;27369;52.030;4.586;2023-04-30T00:28:51;-20807.34;;;-144.41;100.00
41684;BME280;27369;52.030;4.586;2023-04-30T00:31:17;-20807.34;;;-144.41;100.00
41684;BME280;27369;52.030;4.586;2023-04-30T00:33:42;-20807.34;;;-144.41;100.00
41684;BME280;27369;52.030;4.586;2023-04-30T00:36:07;-20807.34;;;-144.41;100.00
41684;BME280;27369;52.030;4.586;2023-04-30T00:38:33;-20807.34;;;-144.41;100.00
41684;BME280;27369;52.030;4.586;2023-04-30T00:40:58;-20807.34;;;-144.41;100.00
41684;BME280;27369;52.030;4.586;2023-04-30T00:43:24;-20807.34;;;-144.41;100.00
41684;BME280;27369;52.030;4.586;2023-04-30T00:45:49;-20807.34;;;-144.41;100.00
41684;BME280;27369;52.030;4.586;2023-04-30T00:48:15;-20807.34;;;-144.41;100.00
41684;BME280;27369;52.030;4.586;2023-04-30T00:50:43;-20807.34;;;-144.41;100.00
41684;BME280;27369;52.030;4.586;2023-04-30T00:53:09;-20807.34;;;-144.41;100.00
41684;BME280;27369;52.030;4.586;2023-04-30T00:55:35;-20807.34;;;-144.41;100.00
41684;BME280;27369;52.030;4.586;2023-04-30T00:58:01;-20807.34;;;-144.41;100.00
41684;BME280;27369;52.030;4.586;2023-04-30T01:00:27;-20807.34;;;-144.41;100.00
41684;BME280;27369;52.030;4.586;2023-04-30T01:02:54;-20807.34;;;-144.41;100.00
41684;BME280;27369;52.030;4.586;2023-04-30T01:05:19;-20807.34;;;-144.41;100.00
41684;BME280;27369;52.030;4.586;2023-04-30T01:07:47;-20807.34;;;-144.41;100.00
41684;BME280;27369;52.030;4.586;2023-04-30T01:10:13;-20807.34;;;-144.41;100.00
41684;BME280;27369;52.030;4.586;2023-04-30T01:12:49;-20807.34;;;-144.41;100.00
41684;BME280;27369;52.030;4.586;2023-04-30T01:18:03;-20807.34;;;-144.41;100.00
41684;BME280;27369;52.030;4.586;2023-04-30T01:20:31;-20807.34;;;-144.41;100.00
41684;BME280;27369;52.030;4.586;2023-04-30T01:23:37;-20807.34;;;-144.41;100.00
41684;BME280;27369;52.030;4.586;2023-04-30T01:27:12;-20807.34;;;-144.41;100.00
41684;BME280;27369;52.030;4.586;2023-04-30T01:29:25;-20807.34;;;-144.41;100.00
41684;BME280;27369;52.030;4.586;2023-04-30T01:31:51;-20807.34;;;-144.41;100.00
41684;BME280;27369;52.030;4.586;2023-04-30T01:34:17;-20807.34;;;-144.41;100.00
41684;BME280;27369;52.030;4.586;2023-04-30T01:40:23;-20807.34;;;-144.41;100.00
41684;BME280;27369;52.030;4.586;2023-04-30T01:45:40;-20807.34;;;-144.41;100.00
41684;BME280;27369;52.030;4.586;2023-04-30T01:51:25;-20807.34;;;-144.41;100.00
41684;BME280;27369;52.030;4.586;2023-04-30T01:53:56;-20807.34;;;-144.41;100.00
41684;BME280;27369;52.030;4.586;2023-04-30T01:56:36;-20807.34;;;-144.41;100.00
41684;BME280;27369;52.030;4.586;2023-04-30T01:59:04;-20807.34;;;-144.41;100.00
41684;BME280;27369;52.030;4.586;2023-04-30T02:01:31;-20807.34;;;-144.41;100.00
41684;BME280;27369;52.030;4.586;2023-04-30T02:03:57;-20807.34;;;-144.41;100.00
41684;BME280;27369;52.030;4.586;2023-04-30T02:06:24;-20807.34;;;-144.41;100.00
41684;BME280;27369;52.030;4.586;2023-04-30T02:08:54;-20807.34;;;-144.41;100.00
41684;BME280;27369;52.030;4.586;2023-04-30T02:11:21;-20807.34;;;-144.41;100.00
41684;BME280;27369;52.030;4.586;2023-04-30T02:13:49;-20807.34;;;-144.41;100.00
41684;BME280;27369;52.030;4.586;2023-04-30T02:16:14;-20807.34;;;-144.41;100.00
41684;BME280;27369;52.030;4.586;2023-04-30T02:18:40;-20807.34;;;-144.41;100.00
41684;BME280;27369;52.030;4.586;2023-04-30T02:21:05;-20807.34;;;-144.41;100.00
41684;BME280;27369;52.030;4.586;2023-04-30T02:23:30;-20807.34;;;-144.41;100.00
41684;BME280;27369;52.030;4.586;2023-04-30T02:25:56;-20807.34;;;-144.41;100.00
41684;BME280;27369;52.030;4.586;2023-04-30T02:28:21;-20807.34;;;-144.41;100.00
41684;BME280;27369;52.030;4.586;2023-04-30T02:30:47;-20807.34;;;-144.41;100.00
41684;BME280;27369;52.030;4.586;2023-04-30T02:33:12;-20807.34;;;-144.41;100.00
41684;BME280;27369;52.030;4.586;2023-04-30T02:35:39;-20807.34;;;-144.41;100.00
41684;BME280;27369;52.030;4.586;2023-04-30T02:38:05;-20807.34;;;-144.41;100.00
41684;BME280;27369;52.030;4.586;2023-04-30T02:40:30;-20807.34;;;-144.41;100.00
41684;BME280;27369;52.030;4.586;2023-04-30T02:42:56;-20807.34;;;-144.41;100.00
41684;BME280;27369;52.030;4.586;2023-04-30T02:45:21;-20807.34;;;-144.41;100.00
41684;BME280;27369;52.030;4.586;2023-04-30T02:47:47;-20807.34;;;-144.41;100.00
41684;BME280;27369;52.030;4.586;2023-04-30T02:50:13;-20807.34;;;-144.41;100.00
41684;BME280;27369;52.030;4.586;2023-04-30T02:52:39;-20807.34;;;-144.41;100.00
41684;BME280;27369;52.030;4.586;2023-04-30T02:55:05;-20807.34;;;-144.41;100.00
41684;BME280;27369;52.030;4.586;2023-04-30T02:57:30;-20807.34;;;-144.41;100.00
41684;BME280;27369;52.030;4.586;2023-04-30T02:59:56;-20807.34;;;-144.41;100.00
41684;BME280;27369;52.030;4.586;2023-04-30T03:02:21;-20807.34;;;-144.41;100.00
41684;BME280;27369;52.030;4.586;2023-04-30T03:04:48;-20807.34;;;-144.41;100.00
41684;BME280;27369;52.030;4.586;2023-04-30T03:07:13;-20807.34;;;-144.41;100.00
41684;BME280;27369;52.030;4.586;2023-04-30T03:09:39;-20807.34;;;-144.41;100.00
41684;BME280;27369;52.030;4.586;2023-04-30T03:12:04;-20807.34;;;-144.41;100.00
41684;BME280;27369;52.030;4.586;2023-04-30T03:14:30;-20807.34;;;-144.41;100.00
41684;BME280;27369;52.030;4.586;2023-04-30T03:16:55;-20807.34;;;-144.41;100.00
41684;BME280;27369;52.030;4.586;2023-04-30T03:19:21;-20807.34;;;-144.41;100.00
41684;BME280;27369;52.030;4.586;2023-04-30T03:21:52;-20807.34;;;-144.41;100.00
41684;BME280;27369;52.030;4.586;2023-04-30T03:24:18;-20807.34;;;-144.41;100.00
41684;BME280;27369;52.030;4.586;2023-04-30T03:26:44;-20807.34;;;-144.41;100.00
41684;BME280;27369;52.030;4.586;2023-04-30T03:29:09;-20807.34;;;-144.41;100.00
41684;BME280;27369;52.030;4.586;2023-04-30T03:31:34;-20807.34;;;-144.41;100.00
41684;BME280;27369;52.030;4.586;2023-04-30T03:34:00;-20807.34;;;-144.41;100.00
41684;BME280;27369;52.030;4.586;2023-04-30T03:36:25;-20807.34;;;-144.41;100.00
41684;BME280;27369;52.030;4.586;2023-04-30T03:38:51;-20807.34;;;-144.41;100.00
41684;BME280;27369;52.030;4.586;2023-04-30T03:41:17;-20807.34;;;-144.41;100.00
41684;BME280;27369;52.030;4.586;2023-04-30T03:43:42;-20807.34;;;-144.41;100.00
41684;BME280;27369;52.030;4.586;2023-04-30T03:46:08;-20807.34;;;-144.41;100.00
41684;BME280;27369;52.030;4.586;2023-04-30T03:48:33;-20807.34;;;-144.41;100.00
41684;BME280;27369;52.030;4.586;2023-04-30T03:50:59;-20807.34;;;-144.41;100.00
41684;BME280;27369;52.030;4.586;2023-04-30T03:53:24;-20807.34;;;-144.41;100.00
41684;BME280;27369;52.030;4.586;2023-04-30T03:55:51;-20807.34;;;-144.41;100.00
41684;BME280;27369;52.030;4.586;2023-04-30T03:58:17;-20807.34;;;-144.41;100.00
41684;BME280;27369;52.030;4.586;2023-04-30T04:00:42;-20807.34;;;-144.41;100.00
41684;BME280;27369;52.030;4.586;2023-04-30T04:03:10;-20807.34;;;-144.41;100.00
41684;BME280;27369;52.030;4.586;2023-04-30T04:05:36;-20807.34;;;-144.41;100.00
41684;BME280;27369;52.030;4.586;2023-04-30T04:08:01;-20807.34;;;-144.41;100.00
41684;BME280;27369;52.030;4.586;2023-04-30T04:10:27;-20807.34;;;-144.41;100.00
41684;BME280;27369;52.030;4.586;2023-04-30T04:12:52;-20807.34;;;-144.41;100.00
41684;BME280;27369;52.030;4.586;2023-04-30T04:15:18;-20807.34;;;-144.41;100.00
41684;BME280;27369;52.030;4.586;2023-04-30T04:17:43;-20807.34;;;-144.41;100.00
41684;BME280;27369;52.030;4.586;2023-04-30T04:20:09;-20807.34;;;-144.41;100.00
41684;BME280;27369;52.030;4.586;2023-04-30T04:22:34;-20807.34;;;-144.41;100.00
41684;BME280;27369;52.030;4.586;2023-04-30T04:25:00;-20807.34;;;-144.41;100.00
41684;BME280;27369;52.030;4.586;2023-04-30T04:27:25;-20807.34;;;-144.41;100.00
41684;BME280;27369;52.030;4.586;2023-04-30T04:29:51;-20807.34;;;-144.41;100.00
41684;BME280;27369;52.030;4.586;2023-04-30T04:32:17;-20807.34;;;-144.41;100.00
41684;BME280;27369;52.030;4.586;2023-04-30T04:34:42;-20807.34;;;-144.41;100.00
41684;BME280;27369;52.030;4.586;2023-04-30T04:37:08;-20807.34;;;-144.41;100.00
41684;BME280;27369;52.030;4.586;2023-04-30T04:39:34;-20807.34;;;-144.41;100.00
41684;BME280;27369;52.030;4.586;2023-04-30T04:42:01;-20807.34;;;-144.41;100.00
41684;BME280;27369;52.030;4.586;2023-04-30T04:44:27;-20807.34;;;-144.41;100.00
41684;BME280;27369;52.030;4.586;2023-04-30T04:46:52;-20807.34;;;-144.41;100.00
41684;BME280;27369;52.030;4.586;2023-04-30T04:49:18;-20807.34;;;-144.41;100.00
41684;BME280;27369;52.030;4.586;2023-04-30T04:51:44;-20807.34;;;-144.41;100.00
41684;BME280;27369;52.030;4.586;2023-04-30T04:54:09;-20807.34;;;-144.41;100.00
41684;BME280;27369;52.030;4.586;2023-04-30T04:56:35;-20807.34;;;-144.41;100.00
41684;BME280;27369;52.030;4.586;2023-04-30T04:59:01;-20807.34;;;-144.41;100.00
41684;BME280;27369;52.030;4.586;2023-04-30T05:01:26;-20807.34;;;-144.41;100.00
41684;BME280;27369;52.030;4.586;2023-04-30T05:03:51;-20807.34;;;-144.41;100.00
41684;BME280;27369;52.030;4.586;2023-04-30T05:06:18;-20807.34;;;-144.41;100.00
41684;BME280;27369;52.030;4.586;2023-04-30T05:08:43;-20807.34;;;-144.41;100.00
41684;BME280;27369;52.030;4.586;2023-04-30T05:11:09;-20807.34;;;-144.41;100.00
41684;BME280;27369;52.030;4.586;2023-04-30T05:13:34;-20807.34;;;-144.41;100.00
41684;BME280;27369;52.030;4.586;2023-04-30T05:16:00;-20807.34;;;-144.41;100.00
41684;BME280;27369;52.030;4.586;2023-04-30T05:18:25;-20807.34;;;-144.41;100.00
41684;BME280;27369;52.030;4.586;2023-04-30T05:20:51;-20807.34;;;-144.41;100.00
41684;BME280;27369;52.030;4.586;2023-04-30T05:23:16;-20807.34;;;-144.41;100.00
41684;BME280;27369;52.030;4.586;2023-04-30T05:25:42;-20807.34;;;-144.41;100.00
41684;BME280;27369;52.030;4.586;2023-04-30T05:28:07;-20807.34;;;-144.41;100.00
41684;BME280;27369;52.030;4.586;2023-04-30T05:30:33;-20807.34;;;-144.41;100.00
41684;BME280;27369;52.030;4.586;2023-04-30T05:32:58;-20807.34;;;-144.41;100.00
41684;BME280;27369;52.030;4.586;2023-04-30T05:35:24;-20807.34;;;-144.41;100.00
41684;BME280;27369;52.030;4.586;2023-04-30T05:37:49;-20807.34;;;-144.41;100.00
41684;BME280;27369;52.030;4.586;2023-04-30T05:40:15;-20807.34;;;-144.41;100.00
41684;BME280;27369;52.030;4.586;2023-04-30T05:42:41;-20807.34;;;-144.41;100.00
41684;BME280;27369;52.030;4.586;2023-04-30T05:45:11;-20807.34;;;-144.41;100.00
41684;BME280;27369;52.030;4.586;2023-04-30T05:47:38;-20807.34;;;-144.41;100.00
41684;BME280;27369;52.030;4.586;2023-04-30T05:50:05;-20807.34;;;-144.41;100.00
41684;BME280;27369;52.030;4.586;2023-04-30T05:52:30;-20807.34;;;-144.41;100.00
41684;BME280;27369;52.030;4.586;2023-04-30T05:54:57;-20807.34;;;-144.41;100.00
41684;BME280;27369;52.030;4.586;2023-04-30T05:57:22;-20807.34;;;-144.41;100.00
41684;BME280;27369;52.030;4.586;2023-04-30T05:59:48;-20807.34;;;-144.41;100.00
41684;BME280;27369;52.030;4.586;2023-04-30T06:02:13;-20807.34;;;-144.41;100.00
41684;BME280;27369;52.030;4.586;2023-04-30T06:04:39;-20807.34;;;-144.41;100.00
41684;BME280;27369;52.030;4.586;2023-04-30T06:07:04;-20807.34;;;-144.41;100.00
41684;BME280;27369;52.030;4.586;2023-04-30T06:09:30;-20807.34;;;-144.41;100.00
41684;BME280;27369;52.030;4.586;2023-04-30T06:11:55;-20807.34;;;-144.41;100.00
41684;BME280;27369;52.030;4.586;2023-04-30T06:14:21;-20807.34;;;-144.41;100.00
41684;BME280;27369;52.030;4.586;2023-04-30T06:16:49;-20807.34;;;-144.41;100.00
41684;BME280;27369;52.030;4.586;2023-04-30T06:19:15;-20807.34;;;-144.41;100.00
41684;BME280;27369;52.030;4.586;2023-04-30T06:21:41;-20059.75;;;-144.41;100.00
41684;BME280;27369;52.030;4.586;2023-04-30T06:24:08;-16575.81;;;-144.41;100.00
41684;BME280;27369;52.030;4.586;2023-04-30T06:26:33;-12839.53;;;-144.41;100.00
41684;BME280;27369;52.030;4.586;2023-04-30T06:28:59;-12341.06;;;-144.41;100.00
41684;BME280;27369;52.030;4.586;2023-04-30T06:31:25;-8101.66;;;-144.41;100.00
41684;BME280;27369;52.030;4.586;2023-04-30T06:33:50;-358.84;;;-144.41;100.00
41684;BME280;27369;52.030;4.586;2023-04-30T06:36:16;7650.09;;;-144.41;100.00
41684;BME280;27369;52.030;4.586;2023-04-30T06:38:44;4144.13;;;-144.41;100.00
41684;BME280;27369;52.030;4.586;2023-04-30T06:41:11;-14085.38;;;-144.41;100.00
41684;BME280;27369;52.030;4.586;2023-04-30T06:43:36;36064.53;;;-144.41;100.00
41684;BME280;27369;52.030;4.586;2023-04-30T06:46:02;27996.94;;;-144.41;100.00
41684;BME280;27369;52.030;4.586;2023-04-30T06:48:28;81724.44;;;-144.41;100.00
41684;BME280;27369;52.030;4.586;2023-04-30T06:50:53;108647.53;;;-144.41;100.00
41684;BME280;27369;52.030;4.586;2023-04-30T06:53:19;108647.53;;;-144.41;100.00
41684;BME280;27369;52.030;4.586;2023-04-30T06:55:45;108645.53;;;-144.41;100.00
41684;BME280;27369;52.030;4.586;2023-04-30T06:58:11;106333.22;;;-144.41;100.00
41684;BME280;27369;52.030;4.586;2023-04-30T07:00:36;105049.19;;;-144.41;100.00
41684;BME280;27369;52.030;4.586;2023-04-30T07:03:02;102482.31;;;-144.41;100.00
41684;BME280;27369;52.030;4.586;2023-04-30T07:05:29;98635.03;;;-144.41;100.00
41684;BME280;27369;52.030;4.586;2023-04-30T07:07:55;97866.00;;;-144.41;100.00
41684;BME280;27369;52.030;4.586;2023-04-30T07:10:21;96072.19;;;-144.41;100.00
41684;BME280;27369;52.030;4.586;2023-04-30T07:12:46;94535.28;;;-144.41;100.00
41684;BME280;27369;52.030;4.586;2023-04-30T07:15:12;93511.00;;;-144.41;100.00
41684;BME280;27369;52.030;4.586;2023-04-30T07:17:37;93767.03;;;-144.41;100.00
41684;BME280;27369;52.030;4.586;2023-04-30T07:20:03;92998.97;;;-144.41;100.00
41684;BME280;27369;52.030;4.586;2023-04-30T07:22:32;90695.56;;;-144.41;100.00
41684;BME280;27369;52.030;4.586;2023-04-30T07:24:58;88904.94;;;-144.41;100.00
41684;BME280;27369;52.030;4.586;2023-04-30T07:27:23;86603.88;;;-144.41;100.00
41684;BME280;27369;52.030;4.586;2023-04-30T07:29:48;86348.28;;;-144.41;100.00
41684;BME280;27369;52.030;4.586;2023-04-30T07:32:15;83537.81;;;-144.41;100.00
41684;BME280;27369;52.030;4.586;2023-04-30T07:34:41;83793.25;;;-144.41;100.00
41684;BME280;27369;52.030;4.586;2023-04-30T07:37:07;84304.13;;;-144.41;100.00
41684;BME280;27369;52.030;4.586;2023-04-30T07:39:34;84559.56;;;-144.41;100.00
41684;BME280;27369;52.030;4.586;2023-04-30T07:42:01;84304.13;;;-144.41;100.00
41684;BME280;27369;52.030;4.586;2023-04-30T07:44:27;85326.06;;;-144.41;100.00
41684;BME280;27369;52.030;4.586;2023-04-30T07:46:53;86603.88;;;-144.41;100.00
41684;BME280;27369;52.030;4.586;2023-04-30T07:49:18;86859.47;;;-144.41;100.00
41684;BME280;27369;52.030;4.586;2023-04-30T07:51:44;87626.41;;;-144.41;100.00
41684;BME280;27369;52.030;4.586;2023-04-30T07:54:10;87370.75;;;-144.41;100.00
41684;BME280;27369;52.030;4.586;2023-04-30T07:56:35;87626.41;;;-144.41;100.00
41684;BME280;27369;52.030;4.586;2023-04-30T07:59:01;87115.09;;;-144.41;100.00
41684;BME280;27369;52.030;4.586;2023-04-30T08:01:26;86859.47;;;-144.41;100.00
41684;BME280;27369;52.030;4.586;2023-04-30T08:03:51;86603.88;;;-144.41;100.00
41684;BME280;27369;52.030;4.586;2023-04-30T08:06:17;86092.69;;;-144.41;100.00
41684;BME280;27369;52.030;4.586;2023-04-30T08:08:43;86348.28;;;-144.41;100.00
41684;BME280;27369;52.030;4.586;2023-04-30T08:11:08;85326.06;;;-144.41;100.00
41684;BME280;27369;52.030;4.586;2023-04-30T08:13:33;84815.06;;;-144.41;100.00
41684;BME280;27369;52.030;4.586;2023-04-30T08:15:59;84304.13;;;-144.41;100.00
41684;BME280;27369;52.030;4.586;2023-04-30T08:18:24;82261.00;;;-144.41;100.00
41684;BME280;27369;52.030;4.586;2023-04-30T08:20:50;80984.56;;;-144.41;100.00
41684;BME280;27369;52.030;4.586;2023-04-30T08:23:15;79453.41;;;-144.41;100.00
41684;BME280;27369;52.030;4.586;2023-04-30T08:25:41;75628.03;;;-144.41;100.00
41684;BME280;27369;52.030;4.586;2023-04-30T08:28:06;73844.09;;;-144.41;100.00
41684;BME280;27369;52.030;4.586;2023-04-30T08:30:31;72825.06;;;-144.41;100.00
41684;BME280;27369;52.030;4.586;2023-04-30T08:32:57;69006.03;;;-144.41;100.00
41684;BME280;27369;52.030;4.586;2023-04-30T08:35:22;67479.44;;;-144.41;100.00
41684;BME280;27369;52.030;4.586;2023-04-30T08:37:48;65953.44;;;-144.41;100.00
41684;BME280;27369;52.030;4.586;2023-04-30T08:40:13;64682.19;;;-144.41;100.00
41684;BME280;27369;52.030;4.586;2023-04-30T08:42:45;62903.16;;;-144.41;100.00
41684;BME280;27369;52.030;4.586;2023-04-30T08:45:11;58998.41;;;-144.41;100.00
41684;BME280;27369;52.030;4.586;2023-04-30T08:47:38;55953.47;;;-144.41;100.00
41684;BME280;27369;52.030;4.586;2023-04-30T08:50:05;54629.97;;;-144.41;100.00
41684;BME280;27369;52.030;4.586;2023-04-30T08:52:31;55781.06;;;-144.41;100.00
41684;BME280;27369;52.030;4.586;2023-04-30T08:54:58;55236.19;;;-144.41;100.00
41684;BME280;27369;52.030;4.586;2023-04-30T08:57:25;51536.91;;;-144.41;100.00
41684;BME280;27369;52.030;4.586;2023-04-30T08:59:51;50323.72;;;-144.41;100.00
41684;BME280;27369;52.030;4.586;2023-04-30T09:02:16;48705.41;;;-144.41;100.00
41684;BME280;27369;52.030;4.586;2023-04-30T09:04:42;47910.31;;;-144.41;100.00
41684;BME280;27369;52.030;4.586;2023-04-30T09:07:08;45273.09;;;-144.41;100.00
41684;BME280;27369;52.030;4.586;2023-04-30T09:09:37;44682.22;;;-144.41;100.00
41684;BME280;27369;52.030;4.586;2023-04-30T09:14:38;41360.03;;;-144.41;100.00
41684;BME280;27369;52.030;4.586;2023-04-30T09:17:04;39733.53;;;-144.41;100.00
41684;BME280;27369;52.030;4.586;2023-04-30T09:19:30;39427.66;;;-144.41;100.00
41684;BME280;27369;52.030;4.586;2023-04-30T09:21:56;39540.13;;;-144.41;100.00
41684;BME280;27369;52.030;4.586;2023-04-30T09:24:22;39129.69;;;-144.41;100.00
41684;BME280;27369;52.030;4.586;2023-04-30T09:26:48;39427.66;;;-144.41;100.00
41684;BME280;27369;52.030;4.586;2023-04-30T09:29:15;39184.94;;;-144.41;100.00
41684;BME280;27369;52.030;4.586;2023-04-30T09:31:45;38977.75;;;-144.41;100.00
41684;BME280;27369;52.030;4.586;2023-04-30T09:34:11;38804.13;;;-144.41;100.00
41684;BME280;27369;52.030;4.586;2023-04-30T09:36:50;38308.91;;;-144.41;100.00
41684;BME280;27369;52.030;4.586;2023-04-30T09:39:17;38287.22;;;-144.41;100.00
41684;BME280;27369;52.030;4.586;2023-04-30T09:41:42;37914.38;;;-144.41;100.00
41684;BME280;27369;52.030;4.586;2023-04-30T09:44:27;36989.34;;;-144.41;100.00
41684;BME280;27369;52.030;4.586;2023-04-30T09:46:55;36871.03;;;-144.41;100.00
41684;BME280;27369;52.030;4.586;2023-04-30T09:49:21;36683.69;;;-144.41;100.00
41684;BME280;27369;52.030;4.586;2023-04-30T09:51:57;37468.59;;;-144.41;100.00
41684;BME280;27369;52.030;4.586;2023-04-30T09:54:28;36782.28;;;-144.41;100.00
41684;BME280;27369;52.030;4.586;2023-04-30T09:56:56;36758.63;;;-144.41;100.00
41684;BME280;27369;52.030;4.586;2023-04-30T09:59:32;36596.91;;;-144.41;100.00
41684;BME280;27369;52.030;4.586;2023-04-30T10:02:03;37279.25;;;-144.41;100.00
41684;BME280;27369;52.030;4.586;2023-04-30T10:04:41;37648.09;;;-144.41;100.00
41684;BME280;27369;52.030;4.586;2023-04-30T10:07:19;37334.47;;;-144.41;100.00
41684;BME280;27369;52.030;4.586;2023-04-30T10:09:49;37513.97;;;-144.41;100.00
41684;BME280;27369;52.030;4.586;2023-04-30T10:12:19;37535.66;;;-144.41;100.00
41684;BME280;27369;52.030;4.586;2023-04-30T10:14:51;38070.22;;;-144.41;100.00
41684;BME280;27369;52.030;4.586;2023-04-30T10:17:23;38046.53;;;-144.41;100.00
41684;BME280;27369;52.030;4.586;2023-04-30T10:19:54;38740.97;;;-144.41;100.00
41684;BME280;27369;52.030;4.586;2023-04-30T10:22:21;38742.94;;;-144.41;100.00
41684;BME280;27369;52.030;4.586;2023-04-30T10:24:47;39145.47;;;-144.41;100.00
41684;BME280;27369;52.030;4.586;2023-04-30T10:27:13;39188.88;;;-144.41;100.00
41684;BME280;27369;52.030;4.586;2023-04-30T10:29:38;39226.38;;;-144.41;100.00
41684;BME280;27369;52.030;4.586;2023-04-30T10:32:05;39202.69;;;-144.41;100.00
41684;BME280;27369;52.030;4.586;2023-04-30T10:35:06;39261.88;;;-144.41;100.00
41684;BME280;27369;52.030;4.586;2023-04-30T10:37:47;39242.16;;;-144.41;100.00
41684;BME280;27369;52.030;4.586;2023-04-30T10:40:15;39259.91;;;-144.41;100.00
41684;BME280;27369;52.030;4.586;2023-04-30T10:42:52;39184.94;;;-144.41;100.00
41684;BME280;27369;52.030;4.586;2023-04-30T10:45:33;39155.34;;;-144.41;100.00
41684;BME280;27369;52.030;4.586;2023-04-30T10:48:01;39135.59;;;-144.41;100.00
41684;BME280;27369;52.030;4.586;2023-04-30T10:50:28;39104.03;;;-144.41;100.00
41684;BME280;27369;52.030;4.586;2023-04-30T10:53:04;39139.56;;;-144.41;100.00
41684;BME280;27369;52.030;4.586;2023-04-30T10:55:31;39094.16;;;-144.41;100.00
41684;BME280;27369;52.030;4.586;2023-04-30T10:57:58;39092.19;;;-144.41;100.00
41684;BME280;27369;52.030;4.586;2023-04-30T11:00:25;39048.78;;;-144.41;100.00
41684;BME280;27369;52.030;4.586;2023-04-30T11:02:55;38973.81;;;-144.41;100.00
41684;BME280;27369;52.030;4.586;2023-04-30T11:05:33;38983.66;;;-144.41;100.00
41684;BME280;27369;52.030;4.586;2023-04-30T11:07:59;38983.66;;;-144.41;100.00
41684;BME280;27369;52.030;4.586;2023-04-30T11:10:27;38926.44;;;-144.41;100.00
41684;BME280;27369;52.030;4.586;2023-04-30T11:12:56;38881.06;;;-144.41;100.00
41684;BME280;27369;52.030;4.586;2023-04-30T11:15:26;38798.19;;;-144.41;100.00
41684;BME280;27369;52.030;4.586;2023-04-30T11:17:57;38843.56;;;-144.41;100.00
41684;BME280;27369;52.030;4.586;2023-04-30T11:20:24;38827.78;;;-144.41;100.00
41684;BME280;27369;52.030;4.586;2023-04-30T11:23:08;38835.69;;;-144.41;100.00
41684;BME280;27369;52.030;4.586;2023-04-30T11:25:39;38912.63;;;-144.41;100.00
41684;BME280;27369;52.030;4.586;2023-04-30T11:28:06;38817.94;;;-144.41;100.00
41684;BME280;27369;52.030;4.586;2023-04-30T11:30:32;38843.56;;;-144.41;100.00
41684;BME280;27369;52.030;4.586;2023-04-30T11:32:59;38829.78;;;-144.41;100.00
41684;BME280;27369;52.030;4.586;2023-04-30T11:35:24;38756.75;;;-144.41;100.00
41684;BME280;27369;52.030;4.586;2023-04-30T11:37:53;38754.78;;;-144.41;100.00
41684;BME280;27369;52.030;4.586;2023-04-30T11:40:19;38770.56;;;-144.41;100.00
41684;BME280;27369;52.030;4.586;2023-04-30T11:42:46;38739.00;;;-144.41;100.00
41684;BME280;27369;52.030;4.586;2023-04-30T11:45:13;38758.75;;;-144.41;100.00
41684;BME280;27369;52.030;4.586;2023-04-30T11:47:49;38713.34;;;-144.41;100.00
41684;BME280;27369;52.030;4.586;2023-04-30T11:50:17;38701.53;;;-144.41;100.00
41684;BME280;27369;52.030;4.586;2023-04-30T11:52:50;38711.38;;;-144.41;100.00
41684;BME280;27369;52.030;4.586;2023-04-30T11:55:18;38703.50;;;-144.41;100.00
41684;BME280;27369;52.030;4.586;2023-04-30T11:57:46;38711.38;;;-144.41;100.00
41684;BME280;27369;52.030;4.586;2023-04-30T12:00:13;38689.69;;;-144.41;100.00
41684;BME280;27369;52.030;4.586;2023-04-30T12:02:41;38679.81;;;-144.41;100.00
41684;BME280;27369;52.030;4.586;2023-04-30T12:05:20;38616.69;;;-144.41;100.00
41684;BME280;27369;52.030;4.586;2023-04-30T12:08:07;38587.09;;;-144.41;100.00
41684;BME280;27369;52.030;4.586;2023-04-30T12:10:37;38634.44;;;-144.41;100.00
41684;BME280;27369;52.030;4.586;2023-04-30T12:13:03;38616.69;;;-144.41;100.00
41684;BME280;27369;52.030;4.586;2023-04-30T12:15:28;38569.34;;;-144.41;100.00
41684;BME280;27369;52.030;4.586;2023-04-30T12:17:55;38612.75;;;-144.41;100.00
41684;BME280;27369;52.030;4.586;2023-04-30T12:20:22;38644.31;;;-144.41;100.00
41684;BME280;27369;52.030;4.586;2023-04-30T12:22:48;38583.16;;;-144.41;100.00
41684;BME280;27369;52.030;4.586;2023-04-30T12:25:16;38598.94;;;-144.41;100.00
41684;BME280;27369;52.030;4.586;2023-04-30T12:27:47;38535.78;;;-144.41;100.00
41684;BME280;27369;52.030;4.586;2023-04-30T12:30:13;38624.56;;;-144.41;100.00
41684;BME280;27369;52.030;4.586;2023-04-30T12:32:43;38626.56;;;-144.41;100.00
41684;BME280;27369;52.030;4.586;2023-04-30T12:35:18;38577.22;;;-144.41;100.00
41684;BME280;27369;52.030;4.586;2023-04-30T12:37:49;36616.63;;;-144.41;100.00
41684;BME280;27369;52.030;4.586;2023-04-30T12:40:17;36865.09;;;-144.41;100.00
41684;BME280;27369;52.030;4.586;2023-04-30T12:42:43;36575.22;;;-144.41;100.00